Flight Track Log - Related Links

Times and Time Zones

All times are in EDT time to prevent confusion due to time zone crossing. See the N135FB flight status page for this flight to view local times or setup timezone preferences in your user account.

Time Position Orientation Groundspeed Altitude Reporting Facility
EDT Latitude Longitude Course Direction KTS MPH feet Rate Location/Type
Tue 03:41:34 PM 27.0925 -80.3797 345° North 187 215 7,600  Level Miami Center
Tue 03:42:34 PM 27.1361 -80.3928 345° North 180 207 7,700 50 Climbing Miami Center
Tue 03:43:34 PM 27.1839 -80.4081 344° North 180 207 7,700 -50 Level Miami Center
Tue 03:44:34 PM 27.2356 -80.4239 345° North 180 207 7,600 -50 Descending Miami Center
Tue 03:45:34 PM 27.2853 -80.4392 345° North 180 207 7,600  Level Miami Center
Tue 03:46:34 PM 27.3331 -80.4525 346° North 175 201 7,600  Level Miami Center
Tue 03:47:34 PM 27.3744 -80.4656 344° North 175 201 7,600  Level Miami Center
Tue 03:48:34 PM 27.4283 -80.4811 346° North 175 201 7,600  Level Miami Center
Tue 03:49:34 PM 27.4739 -80.5014 338° Northwest 175 201 7,600  Level Miami Center
Tue 03:50:34 PM 27.5214 -80.5169 344° North 170 196 7,600  Level Miami Center
Tue 03:51:34 PM 27.5650 -80.5253 350° North 170 196 7,600 50 Level Miami Center
Tue 03:52:34 PM 27.6128 -80.5386 346° North 170 196 7,700 50 Climbing Miami Center
Tue 03:53:34 PM 27.6667 -80.5519 348° North 170 196 7,700  Level Miami Center
Tue 03:54:34 PM 27.7144 -80.5631 348° North 175 201 7,700 -50 Level Miami Center
Tue 03:55:34 PM 27.7622 -80.5739 349° North 175 201 7,600 -50 Descending Miami Center
Tue 03:56:34 PM 27.8056 -80.5894 342° North 180 207 7,600  Level Miami Center
Tue 03:57:34 PM 27.8594 -80.6053 345° North 180 207 7,600  Level Miami Center
Tue 03:58:52 PM 27.9167 -80.6333 337° Northwest 174 200 7,600  Level Orlando TRACON
Tue 03:59:46 PM 27.9667 -80.6333 360° North 173 199 7,600 -50 Level Orlando TRACON
Tue 04:00:53 PM 28.0167 -80.6667 330° Northwest 174 200 7,500  Descending Orlando TRACON
Tue 04:01:53 PM 28.0500 -80.6667 360° North 179 206 7,600 50 Climbing Orlando TRACON
Tue 04:02:52 PM 28.1000 -80.6667 360° North 179 206 7,600  Level Orlando TRACON
Tue 04:03:53 PM 28.1667 -80.6500 12° North 174 200 7,600  Level Orlando TRACON
Tue 04:04:53 PM 28.2000 -80.6333 24° Northeast 179 206 7,600  Level Orlando TRACON
Tue 04:05:47 PM 28.2500 -80.6333 360° North 177 204 7,600  Level Orlando TRACON
Tue 04:06:47 PM 28.3000 -80.6167 16° North 182 209 7,600  Level Orlando TRACON
Tue 04:07:48 PM 28.3500 -80.6167 360° North 172 198 7,600 50 Level Orlando TRACON
Tue 04:08:48 PM 28.4000 -80.6333 344° North 174 200 7,700  Climbing Orlando TRACON
Tue 04:09:42 PM 28.4333 -80.6500 336° Northwest 173 199 7,600 -48 Descending Orlando TRACON
Tue 04:10:54 PM 28.4833 -80.6667 344° North 172 198 7,600  Level Orlando TRACON
Tue 04:11:48 PM 28.5333 -80.6833 344° North 170 196 7,600  Level Orlando TRACON
Tue 04:12:48 PM 28.5833 -80.7167 330° Northwest 166 191 7,600 -211 Level Orlando TRACON
Tue 04:13:42 PM 28.6167 -80.7333 336° Northwest 173 199 7,200 -421 Descending Orlando TRACON
Tue 04:14:42 PM 28.6667 -80.7333 360° North 184 212 6,800 -472 Descending Orlando TRACON
Tue 04:15:49 PM 28.7167 -80.7500 344° North 184 212 6,200 -496 Descending Orlando TRACON
Tue 04:16:43 PM 28.7667 -80.7667 344° North 182 209 5,800 -393 Descending Orlando TRACON
Tue 04:18:37 PM 28.8528 -80.7900 347° North 175 201 5,100 -309 Descending Jacksonville Center
Tue 04:19:38 PM 28.8969 -80.8128 336° Northwest 173 199 4,900 -98 Descending Jacksonville Center
Tue 04:20:39 PM 28.9472 -80.8331 341° North 170 196 4,900  Level Jacksonville Center
Tue 04:21:40 PM 28.9892 -80.8489 342° North 166 191 4,900  Level Jacksonville Center
Tue 04:22:47 PM 29.0356 -80.8692 339° North 160 184 4,900  Level Jacksonville Center
Tue 04:23:48 PM 29.0714 -80.8944 328° Northwest 163 188 4,900  Level Jacksonville Center
Tue 04:24:48 PM 29.1136 -80.9222 330° Northwest 161 185 4,900  Level Jacksonville Center
Tue 04:25:49 PM 29.1517 -80.9525 325° Northwest 159 183 4,900  Level Jacksonville Center
Tue 04:26:51 PM 29.1917 -80.9753 334° Northwest 161 185 4,900 -103 Level Jacksonville Center
Tue 04:27:45 PM 29.2294 -80.9961 334° Northwest 170 196 4,700 -209 Descending Jacksonville Center
Tue 04:28:46 PM 29.2736 -81.0214 333° Northwest 171 197 4,500 -49 Descending Jacksonville Center
Tue 04:29:47 PM 29.3158 -81.0419 337° Northwest 158 182 4,600 98 Climbing Jacksonville Center
Tue 04:30:48 PM 29.3558 -81.0628 336° Northwest 155 178 4,700 -103 Climbing Jacksonville Center
Tue 04:31:43 PM 29.3914 -81.0789 338° Northwest 158 182 4,400 -327 Descending Jacksonville Center

Login

Don't have an account? Register now (free) for customized features, flight alerts, and more!